sensor_id;sensor_type;location;lat;lon;timestamp;temperature;humidity
9323;DHT22;4700;48.822;9.270;2023-03-31T00:01:59;11.80;1.00
9323;DHT22;4700;48.822;9.270;2023-03-31T00:04:47;11.70;1.00
9323;DHT22;4700;48.822;9.270;2023-03-31T00:07:36;12.30;1.00
9323;DHT22;4700;48.822;9.270;2023-03-31T00:10:22;11.70;1.00
9323;DHT22;4700;48.822;9.270;2023-03-31T00:13:08;11.60;1.00
9323;DHT22;4700;48.822;9.270;2023-03-31T00:15:56;11.60;1.00
9323;DHT22;4700;48.822;9.270;2023-03-31T00:18:42;11.60;1.00
9323;DHT22;4700;48.822;9.270;2023-03-31T00:21:31;11.60;1.00
9323;DHT22;4700;48.822;9.270;2023-03-31T00:24:18;11.50;1.00
9323;DHT22;4700;48.822;9.270;2023-03-31T00:27:04;11.50;1.00
9323;DHT22;4700;48.822;9.270;2023-03-31T00:29:50;11.40;1.00
9323;DHT22;4700;48.822;9.270;2023-03-31T00:32:36;11.50;1.00
9323;DHT22;4700;48.822;9.270;2023-03-31T00:35:22;11.40;1.00
9323;DHT22;4700;48.822;9.270;2023-03-31T00:38:17;11.40;1.00
9323;DHT22;4700;48.822;9.270;2023-03-31T00:41:04;11.50;1.00
9323;DHT22;4700;48.822;9.270;2023-03-31T00:44:10;11.50;1.00
9323;DHT22;4700;48.822;9.270;2023-03-31T00:47:00;11.50;1.00
9323;DHT22;4700;48.822;9.270;2023-03-31T00:49:48;11.50;1.00
9323;DHT22;4700;48.822;9.270;2023-03-31T00:52:35;11.50;1.00
9323;DHT22;4700;48.822;9.270;2023-03-31T00:55:26;11.50;1.00
9323;DHT22;4700;48.822;9.270;2023-03-31T00:58:15;11.60;1.00
9323;DHT22;4700;48.822;9.270;2023-03-31T01:01:03;11.60;1.00
9323;DHT22;4700;48.822;9.270;2023-03-31T01:03:48;11.60;1.00
9323;DHT22;4700;48.822;9.270;2023-03-31T01:06:36;11.80;1.00
9323;DHT22;4700;48.822;9.270;2023-03-31T01:09:26;11.80;1.00
9323;DHT22;4700;48.822;9.270;2023-03-31T01:12:21;11.80;1.00
9323;DHT22;4700;48.822;9.270;2023-03-31T01:15:08;11.90;1.00
9323;DHT22;4700;48.822;9.270;2023-03-31T01:17:54;11.80;1.00
9323;DHT22;4700;48.822;9.270;2023-03-31T01:24:29;11.80;1.00
9323;DHT22;4700;48.822;9.270;2023-03-31T01:27:42;11.80;1.00
9323;DHT22;4700;48.822;9.270;2023-03-31T01:40:23;11.80;1.00
9323;DHT22;4700;48.822;9.270;2023-03-31T01:43:15;11.80;1.00
9323;DHT22;4700;48.822;9.270;2023-03-31T01:46:09;11.90;1.00
9323;DHT22;4700;48.822;9.270;2023-03-31T01:49:06;11.90;1.00
9323;DHT22;4700;48.822;9.270;2023-03-31T01:52:01;11.90;1.00
9323;DHT22;4700;48.822;9.270;2023-03-31T01:54:51;11.90;1.00
9323;DHT22;4700;48.822;9.270;2023-03-31T01:57:41;12.00;1.00
9323;DHT22;4700;48.822;9.270;2023-03-31T02:00:34;12.00;1.00
9323;DHT22;4700;48.822;9.270;2023-03-31T02:03:23;12.20;1.00
9323;DHT22;4700;48.822;9.270;2023-03-31T02:06:16;12.10;1.00
9323;DHT22;4700;48.822;9.270;2023-03-31T02:09:11;12.10;1.00
9323;DHT22;4700;48.822;9.270;2023-03-31T02:11:58;12.00;1.00
9323;DHT22;4700;48.822;9.270;2023-03-31T02:14:47;11.90;1.00
9323;DHT22;4700;48.822;9.270;2023-03-31T02:17:35;12.00;1.00
9323;DHT22;4700;48.822;9.270;2023-03-31T02:20:25;12.00;1.00
9323;DHT22;4700;48.822;9.270;2023-03-31T02:23:17;12.10;1.00
9323;DHT22;4700;48.822;9.270;2023-03-31T02:26:07;12.10;1.00
9323;DHT22;4700;48.822;9.270;2023-03-31T02:28:54;12.20;1.00
9323;DHT22;4700;48.822;9.270;2023-03-31T02:31:46;12.20;1.00
9323;DHT22;4700;48.822;9.270;2023-03-31T02:34:33;12.10;1.00
9323;DHT22;4700;48.822;9.270;2023-03-31T02:37:19;12.10;1.00
9323;DHT22;4700;48.822;9.270;2023-03-31T02:40:07;12.10;1.00
9323;DHT22;4700;48.822;9.270;2023-03-31T02:42:55;12.00;1.00
9323;DHT22;4700;48.822;9.270;2023-03-31T02:45:43;12.00;1.00
9323;DHT22;4700;48.822;9.270;2023-03-31T02:48:33;11.90;1.00
9323;DHT22;4700;48.822;9.270;2023-03-31T02:51:37;11.90;1.00
9323;DHT22;4700;48.822;9.270;2023-03-31T02:58:25;11.80;1.00
9323;DHT22;4700;48.822;9.270;2023-03-31T03:01:49;11.80;1.00
9323;DHT22;4700;48.822;9.270;2023-03-31T03:05:00;11.70;1.00
9323;DHT22;4700;48.822;9.270;2023-03-31T03:07:57;11.70;1.00
9323;DHT22;4700;48.822;9.270;2023-03-31T03:10:57;11.70;1.00
9323;DHT22;4700;48.822;9.270;2023-03-31T03:13:49;11.70;1.00
9323;DHT22;4700;48.822;9.270;2023-03-31T03:16:38;11.70;1.00
9323;DHT22;4700;48.822;9.270;2023-03-31T03:19:25;11.60;1.00
9323;DHT22;4700;48.822;9.270;2023-03-31T03:22:12;11.60;1.00
9323;DHT22;4700;48.822;9.270;2023-03-31T03:24:58;11.50;1.00
9323;DHT22;4700;48.822;9.270;2023-03-31T03:27:44;11.60;1.00
9323;DHT22;4700;48.822;9.270;2023-03-31T03:30:30;11.50;1.00
9323;DHT22;4700;48.822;9.270;2023-03-31T03:33:17;11.50;1.00
9323;DHT22;4700;48.822;9.270;2023-03-31T03:36:03;11.40;1.00
9323;DHT22;4700;48.822;9.270;2023-03-31T03:38:50;11.30;1.00
9323;DHT22;4700;48.822;9.270;2023-03-31T03:41:36;11.30;1.00
9323;DHT22;4700;48.822;9.270;2023-03-31T03:44:21;11.20;1.00
9323;DHT22;4700;48.822;9.270;2023-03-31T03:47:07;11.20;1.00
9323;DHT22;4700;48.822;9.270;2023-03-31T03:49:53;11.20;1.00
9323;DHT22;4700;48.822;9.270;2023-03-31T03:52:38;11.10;1.00
9323;DHT22;4700;48.822;9.270;2023-03-31T03:55:29;11.20;1.00
9323;DHT22;4700;48.822;9.270;2023-03-31T03:58:14;11.20;1.00
9323;DHT22;4700;48.822;9.270;2023-03-31T04:01:00;11.20;1.00
9323;DHT22;4700;48.822;9.270;2023-03-31T04:03:46;11.20;1.00
9323;DHT22;4700;48.822;9.270;2023-03-31T04:06:32;11.20;1.00
9323;DHT22;4700;48.822;9.270;2023-03-31T04:09:18;11.20;1.00
9323;DHT22;4700;48.822;9.270;2023-03-31T04:12:05;11.10;1.00
9323;DHT22;4700;48.822;9.270;2023-03-31T04:14:51;11.10;1.00
9323;DHT22;4700;48.822;9.270;2023-03-31T04:17:37;11.00;1.00
9323;DHT22;4700;48.822;9.270;2023-03-31T04:20:22;10.70;1.00
9323;DHT22;4700;48.822;9.270;2023-03-31T04:23:11;10.60;1.00
9323;DHT22;4700;48.822;9.270;2023-03-31T04:26:01;10.60;1.00
9323;DHT22;4700;48.822;9.270;2023-03-31T04:28:48;10.50;1.00
9323;DHT22;4700;48.822;9.270;2023-03-31T04:31:36;10.40;1.00
9323;DHT22;4700;48.822;9.270;2023-03-31T04:34:26;10.50;1.00
9323;DHT22;4700;48.822;9.270;2023-03-31T04:37:10;10.50;1.00
9323;DHT22;4700;48.822;9.270;2023-03-31T04:39:56;10.60;1.00
9323;DHT22;4700;48.822;9.270;2023-03-31T04:42:51;10.70;1.00
9323;DHT22;4700;48.822;9.270;2023-03-31T04:45:38;10.80;1.00
9323;DHT22;4700;48.822;9.270;2023-03-31T04:48:24;10.80;1.00
9323;DHT22;4700;48.822;9.270;2023-03-31T04:51:09;10.90;1.00
9323;DHT22;4700;48.822;9.270;2023-03-31T04:53:58;10.90;1.00
9323;DHT22;4700;48.822;9.270;2023-03-31T04:56:44;11.00;1.00
9323;DHT22;4700;48.822;9.270;2023-03-31T04:59:29;11.00;1.00
9323;DHT22;4700;48.822;9.270;2023-03-31T05:02:17;11.00;1.00
9323;DHT22;4700;48.822;9.270;2023-03-31T05:05:07;11.10;1.00
9323;DHT22;4700;48.822;9.270;2023-03-31T05:07:53;11.10;1.00
9323;DHT22;4700;48.822;9.270;2023-03-31T05:10:39;11.20;1.00
9323;DHT22;4700;48.822;9.270;2023-03-31T05:13:25;11.30;1.00
9323;DHT22;4700;48.822;9.270;2023-03-31T05:16:14;11.30;1.00
9323;DHT22;4700;48.822;9.270;2023-03-31T05:19:02;11.30;1.00
9323;DHT22;4700;48.822;9.270;2023-03-31T05:21:48;11.40;1.00
9323;DHT22;4700;48.822;9.270;2023-03-31T05:24:34;11.40;1.00
9323;DHT22;4700;48.822;9.270;2023-03-31T05:27:19;11.40;1.00
9323;DHT22;4700;48.822;9.270;2023-03-31T05:30:06;11.30;1.00
9323;DHT22;4700;48.822;9.270;2023-03-31T05:32:53;11.20;1.00
9323;DHT22;4700;48.822;9.270;2023-03-31T05:35:40;11.10;1.00
9323;DHT22;4700;48.822;9.270;2023-03-31T05:38:26;11.00;1.00
9323;DHT22;4700;48.822;9.270;2023-03-31T05:41:14;10.80;1.00
9323;DHT22;4700;48.822;9.270;2023-03-31T05:46:47;10.20;1.00
9323;DHT22;4700;48.822;9.270;2023-03-31T05:49:32;10.50;1.00
9323;DHT22;4700;48.822;9.270;2023-03-31T05:55:06;10.30;1.00
9323;DHT22;4700;48.822;9.270;2023-03-31T05:57:53;10.20;1.00
9323;DHT22;4700;48.822;9.270;2023-03-31T06:00:39;10.20;1.00
9323;DHT22;4700;48.822;9.270;2023-03-31T06:05:55;10.00;1.00
9323;DHT22;4700;48.822;9.270;2023-03-31T06:08:45;9.90;1.00
9323;DHT22;4700;48.822;9.270;2023-03-31T06:11:31;9.90;1.00
9323;DHT22;4700;48.822;9.270;2023-03-31T06:14:17;9.90;1.00
9323;DHT22;4700;48.822;9.270;2023-03-31T06:17:03;9.90;1.00
9323;DHT22;4700;48.822;9.270;2023-03-31T06:19:49;9.90;1.00
9323;DHT22;4700;48.822;9.270;2023-03-31T06:22:35;9.70;1.00
9323;DHT22;4700;48.822;9.270;2023-03-31T06:25:22;9.90;1.00
9323;DHT22;4700;48.822;9.270;2023-03-31T06:28:08;9.90;1.00
9323;DHT22;4700;48.822;9.270;2023-03-31T06:30:59;9.90;1.00
9323;DHT22;4700;48.822;9.270;2023-03-31T06:33:46;9.90;1.00
9323;DHT22;4700;48.822;9.270;2023-03-31T06:36:34;10.00;1.00
9323;DHT22;4700;48.822;9.270;2023-03-31T06:39:21;9.90;1.00
9323;DHT22;4700;48.822;9.270;2023-03-31T06:42:09;10.00;1.00
9323;DHT22;4700;48.822;9.270;2023-03-31T06:44:54;10.00;1.00
9323;DHT22;4700;48.822;9.270;2023-03-31T06:47:41;10.00;1.00
9323;DHT22;4700;48.822;9.270;2023-03-31T06:50:27;9.90;1.00
9323;DHT22;4700;48.822;9.270;2023-03-31T06:53:13;9.90;1.00
9323;DHT22;4700;48.822;9.270;2023-03-31T06:55:59;9.90;1.00
9323;DHT22;4700;48.822;9.270;2023-03-31T06:58:49;9.80;1.00
9323;DHT22;4700;48.822;9.270;2023-03-31T07:01:35;9.80;1.00
9323;DHT22;4700;48.822;9.270;2023-03-31T07:07:09;9.80;1.00
9323;DHT22;4700;48.822;9.270;2023-03-31T07:09:57;9.80;1.00
9323;DHT22;4700;48.822;9.270;2023-03-31T07:18:18;9.70;1.00
9323;DHT22;4700;48.822;9.270;2023-03-31T07:21:04;9.80;1.00
9323;DHT22;4700;48.822;9.270;2023-03-31T07:23:51;9.80;1.00
9323;DHT22;4700;48.822;9.270;2023-03-31T07:26:37;9.80;1.00
9323;DHT22;4700;48.822;9.270;2023-03-31T07:29:23;9.90;1.00
9323;DHT22;4700;48.822;9.270;2023-03-31T07:35:00;9.90;1.00
9323;DHT22;4700;48.822;9.270;2023-03-31T07:37:48;10.00;1.00
9323;DHT22;4700;48.822;9.270;2023-03-31T07:40:34;10.00;1.00
9323;DHT22;4700;48.822;9.270;2023-03-31T07:43:20;10.10;1.00
9323;DHT22;4700;48.822;9.270;2023-03-31T07:46:05;10.30;1.00
9323;DHT22;4700;48.822;9.270;2023-03-31T07:48:54;11.50;1.00
9323;DHT22;4700;48.822;9.270;2023-03-31T07:51:41;13.10;1.00
9323;DHT22;4700;48.822;9.270;2023-03-31T07:54:27;14.00;1.00
9323;DHT22;4700;48.822;9.270;2023-03-31T07:57:13;14.00;1.00
9323;DHT22;4700;48.822;9.270;2023-03-31T08:00:00;14.30;1.00
9323;DHT22;4700;48.822;9.270;2023-03-31T08:02:50;14.20;1.00
9323;DHT22;4700;48.822;9.270;2023-03-31T08:05:37;14.40;1.00
9323;DHT22;4700;48.822;9.270;2023-03-31T08:08:23;14.00;1.00
9323;DHT22;4700;48.822;9.270;2023-03-31T08:11:09;13.70;1.00
9323;DHT22;4700;48.822;9.270;2023-03-31T08:13:55;14.40;1.00
9323;DHT22;4700;48.822;9.270;2023-03-31T08:16:41;15.50;1.00
9323;DHT22;4700;48.822;9.270;2023-03-31T08:19:27;17.50;1.00
9323;DHT22;4700;48.822;9.270;2023-03-31T08:22:15;19.10;1.00
9323;DHT22;4700;48.822;9.270;2023-03-31T08:25:00;23.00;1.00
9323;DHT22;4700;48.822;9.270;2023-03-31T08:27:46;22.90;1.00
9323;DHT22;4700;48.822;9.270;2023-03-31T08:30:36;23.60;1.00
9323;DHT22;4700;48.822;9.270;2023-03-31T08:33:22;24.00;1.00
9323;DHT22;4700;48.822;9.270;2023-03-31T08:36:10;24.50;1.00
9323;DHT22;4700;48.822;9.270;2023-03-31T08:38:58;24.30;1.00
9323;DHT22;4700;48.822;9.270;2023-03-31T08:41:54;24.60;1.00
9323;DHT22;4700;48.822;9.270;2023-03-31T08:44:43;25.70;1.00
9323;DHT22;4700;48.822;9.270;2023-03-31T08:47:31;25.70;1.00
9323;DHT22;4700;48.822;9.270;2023-03-31T08:50:24;26.70;1.00
9323;DHT22;4700;48.822;9.270;2023-03-31T08:53:19;26.10;1.00
9323;DHT22;4700;48.822;9.270;2023-03-31T08:56:13;24.90;1.00
9323;DHT22;4700;48.822;9.270;2023-03-31T08:59:00;25.60;1.00
9323;DHT22;4700;48.822;9.270;2023-03-31T09:01:49;26.60;1.00
9323;DHT22;4700;48.822;9.270;2023-03-31T09:05:05;27.10;1.00
9323;DHT22;4700;48.822;9.270;2023-03-31T09:08:00;27.70;1.00
9323;DHT22;4700;48.822;9.270;2023-03-31T09:10:55;26.40;1.00
9323;DHT22;4700;48.822;9.270;2023-03-31T09:14:05;25.70;1.00
9323;DHT22;4700;48.822;9.270;2023-03-31T09:17:01;26.20;1.00
9323;DHT22;4700;48.822;9.270;2023-03-31T09:19:55;25.70;1.00
9323;DHT22;4700;48.822;9.270;2023-03-31T09:22:46;25.20;1.00
9323;DHT22;4700;48.822;9.270;2023-03-31T09:25:36;25.40;1.00
9323;DHT22;4700;48.822;9.270;2023-03-31T09:28:27;25.70;1.00
9323;DHT22;4700;48.822;9.270;2023-03-31T09:31:17;24.80;1.00
9323;DHT22;4700;48.822;9.270;2023-03-31T09:34:13;23.60;1.00
9323;DHT22;4700;48.822;9.270;2023-03-31T09:37:00;22.40;1.00
9323;DHT22;4700;48.822;9.270;2023-03-31T09:39:46;20.20;1.00
9323;DHT22;4700;48.822;9.270;2023-03-31T09:42:32;19.50;1.00
9323;DHT22;4700;48.822;9.270;2023-03-31T09:45:21;18.20;1.00
9323;DHT22;4700;48.822;9.270;2023-03-31T09:48:12;18.80;1.00
9323;DHT22;4700;48.822;9.270;2023-03-31T09:51:00;16.50;1.00
9323;DHT22;4700;48.822;9.270;2023-03-31T09:53:50;15.90;1.00
9323;DHT22;4700;48.822;9.270;2023-03-31T09:56:46;15.40;1.00
9323;DHT22;4700;48.822;9.270;2023-03-31T09:59:34;15.50;1.00
9323;DHT22;4700;48.822;9.270;2023-03-31T10:02:34;15.80;1.00
9323;DHT22;4700;48.822;9.270;2023-03-31T10:05:28;16.10;1.00
9323;DHT22;4700;48.822;9.270;2023-03-31T10:08:25;16.20;1.00
9323;DHT22;4700;48.822;9.270;2023-03-31T10:11:11;16.50;1.00
9323;DHT22;4700;48.822;9.270;2023-03-31T10:14:01;16.50;1.00
9323;DHT22;4700;48.822;9.270;2023-03-31T10:16:49;16.50;1.00
9323;DHT22;4700;48.822;9.270;2023-03-31T10:19:36;16.40;1.00
9323;DHT22;4700;48.822;9.270;2023-03-31T10:22:32;16.30;1.00
9323;DHT22;4700;48.822;9.270;2023-03-31T10:25:21;16.20;1.00
9323;DHT22;4700;48.822;9.270;2023-03-31T10:28:10;16.10;1.00
9323;DHT22;4700;48.822;9.270;2023-03-31T10:30:58;16.30;1.00
9323;DHT22;4700;48.822;9.270;2023-03-31T10:33:47;16.20;1.00
9323;DHT22;4700;48.822;9.270;2023-03-31T10:36:34;16.10;1.00
9323;DHT22;4700;48.822;9.270;2023-03-31T10:39:29;16.10;1.00
9323;DHT22;4700;48.822;9.270;2023-03-31T10:42:20;16.20;1.00
9323;DHT22;4700;48.822;9.270;2023-03-31T10:45:24;16.10;1.00
9323;DHT22;4700;48.822;9.270;2023-03-31T10:48:18;16.50;1.00
9323;DHT22;4700;48.822;9.270;2023-03-31T10:51:05;16.70;1.00
9323;DHT22;4700;48.822;9.270;2023-03-31T10:54:00;16.70;1.00
9323;DHT22;4700;48.822;9.270;2023-03-31T10:56:50;16.80;1.00
9323;DHT22;4700;48.822;9.270;2023-03-31T10:59:47;16.70;1.00
9323;DHT22;4700;48.822;9.270;2023-03-31T11:02:45;16.50;1.00
9323;DHT22;4700;48.822;9.270;2023-03-31T11:05:36;16.70;1.00
9323;DHT22;4700;48.822;9.270;2023-03-31T11:08:36;16.60;1.00
9323;DHT22;4700;48.822;9.270;2023-03-31T11:11:39;16.60;1.00
9323;DHT22;4700;48.822;9.270;2023-03-31T11:14:39;16.70;1.00
9323;DHT22;4700;48.822;9.270;2023-03-31T11:17:34;16.60;1.00
9323;DHT22;4700;48.822;9.270;2023-03-31T11:20:33;16.70;1.00
9323;DHT22;4700;48.822;9.270;2023-03-31T11:23:26;16.20;1.00
9323;DHT22;4700;48.822;9.270;2023-03-31T11:26:19;15.80;1.00
9323;DHT22;4700;48.822;9.270;2023-03-31T11:29:15;13.20;1.00
9323;DHT22;4700;48.822;9.270;2023-03-31T11:32:21;13.10;1.00
9323;DHT22;4700;48.822;9.270;2023-03-31T11:35:22;11.40;1.00
9323;DHT22;4700;48.822;9.270;2023-03-31T11:38:32;10.30;1.00
9323;DHT22;4700;48.822;9.270;2023-03-31T11:41:27;9.80;1.00
9323;DHT22;4700;48.822;9.270;2023-03-31T11:44:16;9.50;1.00
9323;DHT22;4700;48.822;9.270;2023-03-31T11:47:06;9.40;1.00
9323;DHT22;4700;48.822;9.270;2023-03-31T11:49:58;9.40;1.00
9323;DHT22;4700;48.822;9.270;2023-03-31T11:52:52;9.40;1.00
9323;DHT22;4700;48.822;9.270;2023-03-31T11:55:41;9.40;1.00
9323;DHT22;4700;48.822;9.270;2023-03-31T11:58:34;9.40;1.00
9323;DHT22;4700;48.822;9.270;2023-03-31T12:01:26;9.50;1.00
9323;DHT22;4700;48.822;9.270;2023-03-31T12:04:24;9.50;1.00
9323;DHT22;4700;48.822;9.270;2023-03-31T12:07:22;9.60;1.00
9323;DHT22;4700;48.822;9.270;2023-03-31T12:10:17;9.80;1.00
9323;DHT22;4700;48.822;9.270;2023-03-31T12:13:10;9.90;1.00
9323;DHT22;4700;48.822;9.270;2023-03-31T12:16:03;10.20;1.00
9323;DHT22;4700;48.822;9.270;2023-03-31T12:18:58;10.80;1.00
9323;DHT22;4700;48.822;9.270;2023-03-31T12:21:59;11.50;1.00
9323;DHT22;4700;48.822;9.270;2023-03-31T12:24:48;11.80;1.00
9323;DHT22;4700;48.822;9.270;2023-03-31T12:27:39;11.80;1.00
9323;DHT22;4700;48.822;9.270;2023-03-31T12:30:29;11.80;1.00
9323;DHT22;4700;48.822;9.270;2023-03-31T12:33:20;11.80;1.00
9323;DHT22;4700;48.822;9.270;2023-03-31T12:36:17;12.00;1.00
9323;DHT22;4700;48.822;9.270;2023-03-31T12:39:19;12.30;1.00
9323;DHT22;4700;48.822;9.270;2023-03-31T12:45:27;13.00;1.00
9323;DHT22;4700;48.822;9.270;2023-03-31T12:51:49;13.00;1.00
9323;DHT22;4700;48.822;9.270;2023-03-31T12:55:09;13.00;1.00
9323;DHT22;4700;48.822;9.270;2023-03-31T13:01:21;13.30;1.00
9323;DHT22;4700;48.822;9.270;2023-03-31T13:04:08;13.60;1.00
9323;DHT22;4700;48.822;9.270;2023-03-31T13:06:56;13.90;1.00
9323;DHT22;4700;48.822;9.270;2023-03-31T13:09:51;14.00;1.00
9323;DHT22;4700;48.822;9.270;2023-03-31T13:12:23;14.20;1.00
9323;DHT22;4700;48.822;9.270;2023-03-31T13:15:13;14.50;1.00
9323;DHT22;4700;48.822;9.270;2023-03-31T13:18:04;14.80;1.00
9323;DHT22;4700;48.822;9.270;2023-03-31T13:20:57;14.40;1.00
9323;DHT22;4700;48.822;9.270;2023-03-31T13:23:45;14.20;1.00
9323;DHT22;4700;48.822;9.270;2023-03-31T13:26:39;14.10;1.00
9323;DHT22;4700;48.822;9.270;2023-03-31T13:29:38;13.90;1.00
9323;DHT22;4700;48.822;9.270;2023-03-31T13:32:25;13.60;1.00
9323;DHT22;4700;48.822;9.270;2023-03-31T13:35:17;13.30;1.00
9323;DHT22;4700;48.822;9.270;2023-03-31T13:38:08;12.90;1.00
9323;DHT22;4700;48.822;9.270;2023-03-31T13:44:28;12.60;1.00
9323;DHT22;4700;48.822;9.270;2023-03-31T13:47:34;12.60;1.00
9323;DHT22;4700;48.822;9.270;2023-03-31T13:54:06;12.40;1.00
9323;DHT22;4700;48.822;9.270;2023-03-31T14:00:36;12.20;1.00
9323;DHT22;4700;48.822;9.270;2023-03-31T14:03:43;12.10;1.00
9323;DHT22;4700;48.822;9.270;2023-03-31T14:06:34;12.00;1.00
9323;DHT22;4700;48.822;9.270;2023-03-31T14:09:25;11.90;1.00
9323;DHT22;4700;48.822;9.270;2023-03-31T14:12:20;11.70;1.00
9323;DHT22;4700;48.822;9.270;2023-03-31T14:15:17;11.60;1.00
9323;DHT22;4700;48.822;9.270;2023-03-31T14:18:04;11.60;1.00
9323;DHT22;4700;48.822;9.270;2023-03-31T14:21:01;11.60;1.00
9323;DHT22;4700;48.822;9.270;2023-03-31T14:23:56;11.90;1.00
9323;DHT22;4700;48.822;9.270;2023-03-31T14:26:53;12.40;1.00
9323;DHT22;4700;48.822;9.270;2023-03-31T14:29:50;12.90;1.00
9323;DHT22;4700;48.822;9.270;2023-03-31T14:32:42;13.20;1.00
9323;DHT22;4700;48.822;9.270;2023-03-31T14:35:32;13.20;1.00
9323;DHT22;4700;48.822;9.270;2023-03-31T14:38:22;13.20;1.00
9323;DHT22;4700;48.822;9.270;2023-03-31T14:41:16;13.20;1.00
9323;DHT22;4700;48.822;9.270;2023-03-31T14:44:06;13.10;1.00
9323;DHT22;4700;48.822;9.270;2023-03-31T14:46:55;13.20;1.00
9323;DHT22;4700;48.822;9.270;2023-03-31T14:49:41;13.20;1.00
9323;DHT22;4700;48.822;9.270;2023-03-31T14:52:29;13.40;1.00
9323;DHT22;4700;48.822;9.270;2023-03-31T14:55:17;13.60;1.00
9323;DHT22;4700;48.822;9.270;2023-03-31T14:58:04;13.80;1.00
9323;DHT22;4700;48.822;9.270;2023-03-31T15:00:53;13.90;1.00
9323;DHT22;4700;48.822;9.270;2023-03-31T15:03:40;14.00;1.00
9323;DHT22;4700;48.822;9.270;2023-03-31T15:06:26;14.10;1.00
9323;DHT22;4700;48.822;9.270;2023-03-31T15:09:20;14.10;1.00
9323;DHT22;4700;48.822;9.270;2023-03-31T15:12:11;13.90;1.00
9323;DHT22;4700;48.822;9.270;2023-03-31T15:15:02;13.90;1.00
9323;DHT22;4700;48.822;9.270;2023-03-31T15:17:50;14.00;1.00
9323;DHT22;4700;48.822;9.270;2023-03-31T15:20:38;13.90;1.00
9323;DHT22;4700;48.822;9.270;2023-03-31T15:23:28;13.80;1.00
9323;DHT22;4700;48.822;9.270;2023-03-31T15:26:15;13.70;1.00
9323;DHT22;4700;48.822;9.270;2023-03-31T15:29:06;13.70;1.00
9323;DHT22;4700;48.822;9.270;2023-03-31T15:31:58;13.60;1.00
9323;DHT22;4700;48.822;9.270;2023-03-31T15:34:45;13.90;1.00
9323;DHT22;4700;48.822;9.270;2023-03-31T15:37:37;13.90;1.00
9323;DHT22;4700;48.822;9.270;2023-03-31T15:40:26;14.10;1.00
9323;DHT22;4700;48.822;9.270;2023-03-31T15:43:15;14.20;1.00
9323;DHT22;4700;48.822;9.270;2023-03-31T15:46:01;14.30;1.00
9323;DHT22;4700;48.822;9.270;2023-03-31T15:48:52;14.40;1.00
9323;DHT22;4700;48.822;9.270;2023-03-31T15:51:40;14.20;1.00
9323;DHT22;4700;48.822;9.270;2023-03-31T15:54:35;14.00;1.00
9323;DHT22;4700;48.822;9.270;2023-03-31T15:57:30;13.80;1.00
9323;DHT22;4700;48.822;9.270;2023-03-31T16:00:41;13.80;1.00
9323;DHT22;4700;48.822;9.270;2023-03-31T16:03:34;13.70;1.00
9323;DHT22;4700;48.822;9.270;2023-03-31T16:06:27;13.60;1.00
9323;DHT22;4700;48.822;9.270;2023-03-31T16:09:18;13.50;1.00
9323;DHT22;4700;48.822;9.270;2023-03-31T16:12:12;13.40;1.00
9323;DHT22;4700;48.822;9.270;2023-03-31T16:15:02;13.40;1.00
9323;DHT22;4700;48.822;9.270;2023-03-31T16:17:52;13.10;1.00
9323;DHT22;4700;48.822;9.270;2023-03-31T16:20:40;13.10;1.00
9323;DHT22;4700;48.822;9.270;2023-03-31T16:23:31;13.00;1.00
9323;DHT22;4700;48.822;9.270;2023-03-31T16:26:21;12.90;1.00
9323;DHT22;4700;48.822;9.270;2023-03-31T16:29:07;12.90;1.00
9323;DHT22;4700;48.822;9.270;2023-03-31T16:32:06;12.80;1.00
9323;DHT22;4700;48.822;9.270;2023-03-31T16:34:55;12.80;1.00
9323;DHT22;4700;48.822;9.270;2023-03-31T16:37:40;12.70;1.00
9323;DHT22;4700;48.822;9.270;2023-03-31T16:40:30;12.50;1.00
9323;DHT22;4700;48.822;9.270;2023-03-31T16:43:22;12.50;1.00
9323;DHT22;4700;48.822;9.270;2023-03-31T16:46:08;12.40;1.00
9323;DHT22;4700;48.822;9.270;2023-03-31T16:48:53;12.30;1.00
9323;DHT22;4700;48.822;9.270;2023-03-31T16:51:41;12.20;1.00
9323;DHT22;4700;48.822;9.270;2023-03-31T16:54:27;12.10;1.00
9323;DHT22;4700;48.822;9.270;2023-03-31T16:57:12;12.10;1.00
9323;DHT22;4700;48.822;9.270;2023-03-31T17:00:00;11.90;1.00
9323;DHT22;4700;48.822;9.270;2023-03-31T17:02:45;11.90;1.00
9323;DHT22;4700;48.822;9.270;2023-03-31T17:05:36;11.80;1.00
9323;DHT22;4700;48.822;9.270;2023-03-31T17:08:26;11.70;1.00
9323;DHT22;4700;48.822;9.270;2023-03-31T17:11:12;11.60;1.00
9323;DHT22;4700;48.822;9.270;2023-03-31T17:13:59;11.60;1.00
9323;DHT22;4700;48.822;9.270;2023-03-31T17:16:47;11.40;1.00
9323;DHT22;4700;48.822;9.270;2023-03-31T17:19:33;11.40;1.00
9323;DHT22;4700;48.822;9.270;2023-03-31T17:22:19;11.30;1.00
9323;DHT22;4700;48.822;9.270;2023-03-31T17:25:05;11.20;1.00
9323;DHT22;4700;48.822;9.270;2023-03-31T17:27:51;11.30;1.00
9323;DHT22;4700;48.822;9.270;2023-03-31T17:30:39;11.20;1.00
9323;DHT22;4700;48.822;9.270;2023-03-31T17:33:28;11.20;1.00
9323;DHT22;4700;48.822;9.270;2023-03-31T17:36:15;11.20;1.00
9323;DHT22;4700;48.822;9.270;2023-03-31T17:39:01;11.20;1.00
9323;DHT22;4700;48.822;9.270;2023-03-31T17:41:48;11.20;1.00
9323;DHT22;4700;48.822;9.270;2023-03-31T17:44:34;11.10;1.00
9323;DHT22;4700;48.822;9.270;2023-03-31T17:47:20;11.00;1.00
9323;DHT22;4700;48.822;9.270;2023-03-31T17:50:08;11.00;1.00
9323;DHT22;4700;48.822;9.270;2023-03-31T17:52:54;11.00;1.00
9323;DHT22;4700;48.822;9.270;2023-03-31T17:55:41;11.00;1.00
9323;DHT22;4700;48.822;9.270;2023-03-31T17:58:27;10.90;1.00
9323;DHT22;4700;48.822;9.270;2023-03-31T18:01:14;10.90;1.00
9323;DHT22;4700;48.822;9.270;2023-03-31T18:04:00;10.80;1.00
9323;DHT22;4700;48.822;9.270;2023-03-31T18:06:47;10.80;1.00
9323;DHT22;4700;48.822;9.270;2023-03-31T18:09:33;10.70;1.00
9323;DHT22;4700;48.822;9.270;2023-03-31T18:14:53;9.90;1.00
9323;DHT22;4700;48.822;9.270;2023-03-31T18:20:14;9.30;1.00
9323;DHT22;4700;48.822;9.270;2023-03-31T18:26:22;9.10;1.00
9323;DHT22;4700;48.822;9.270;2023-03-31T18:34:34;8.80;1.00
9323;DHT22;4700;48.822;9.270;2023-03-31T18:42:34;8.70;1.00
9323;DHT22;4700;48.822;9.270;2023-03-31T18:58:10;8.60;1.00
9323;DHT22;4700;48.822;9.270;2023-03-31T19:55:18;8.80;1.00
9323;DHT22;4700;48.822;9.270;2023-03-31T20:18:57;9.40;1.00
9323;DHT22;4700;48.822;9.270;2023-03-31T20:21:44;9.50;1.00
9323;DHT22;4700;48.822;9.270;2023-03-31T20:24:30;9.50;1.00
9323;DHT22;4700;48.822;9.270;2023-03-31T20:27:16;9.60;1.00
9323;DHT22;4700;48.822;9.270;2023-03-31T20:30:04;9.30;1.00
9323;DHT22;4700;48.822;9.270;2023-03-31T20:32:50;9.70;1.00
9323;DHT22;4700;48.822;9.270;2023-03-31T20:35:37;9.70;1.00
9323;DHT22;4700;48.822;9.270;2023-03-31T20:38:23;9.80;1.00
9323;DHT22;4700;48.822;9.270;2023-03-31T20:41:10;9.80;1.00
9323;DHT22;4700;48.822;9.270;2023-03-31T20:43:56;9.80;1.00
9323;DHT22;4700;48.822;9.270;2023-03-31T20:46:42;9.80;1.00
9323;DHT22;4700;48.822;9.270;2023-03-31T20:49:29;9.80;1.00
9323;DHT22;4700;48.822;9.270;2023-03-31T20:52:17;9.80;1.00
9323;DHT22;4700;48.822;9.270;2023-03-31T20:55:03;9.80;1.00
9323;DHT22;4700;48.822;9.270;2023-03-31T20:57:49;9.70;1.00
9323;DHT22;4700;48.822;9.270;2023-03-31T21:00:35;9.70;1.00
9323;DHT22;4700;48.822;9.270;2023-03-31T21:03:21;9.70;1.00
9323;DHT22;4700;48.822;9.270;2023-03-31T21:06:09;9.60;1.00
9323;DHT22;4700;48.822;9.270;2023-03-31T21:08:56;9.60;1.00
9323;DHT22;4700;48.822;9.270;2023-03-31T21:11:43;9.60;1.00
9323;DHT22;4700;48.822;9.270;2023-03-31T21:14:29;9.60;1.00
9323;DHT22;4700;48.822;9.270;2023-03-31T21:17:15;9.60;1.00
9323;DHT22;4700;48.822;9.270;2023-03-31T21:20:00;9.60;1.00
9323;DHT22;4700;48.822;9.270;2023-03-31T21:22:47;9.60;1.00
9323;DHT22;4700;48.822;9.270;2023-03-31T21:25:34;9.60;1.00
9323;DHT22;4700;48.822;9.270;2023-03-31T21:28:22;9.60;1.00
9323;DHT22;4700;48.822;9.270;2023-03-31T21:31:10;9.60;1.00
9323;DHT22;4700;48.822;9.270;2023-03-31T21:33:57;9.50;1.00
9323;DHT22;4700;48.822;9.270;2023-03-31T21:36:44;9.40;1.00